sensor_id;sensor_type;location;lat;lon;timestamp;P1;durP1;ratioP1;P2;durP2;ratioP2
50010;SDS011;35899;50.352;19.390;2022-12-17T00:00:37;117.47;;;32.20;;
50010;SDS011;35899;50.352;19.390;2022-12-17T00:03:05;119.53;;;35.23;;
50010;SDS011;35899;50.352;19.390;2022-12-17T00:05:34;110.00;;;32.53;;
50010;SDS011;35899;50.352;19.390;2022-12-17T00:08:00;110.90;;;32.45;;
50010;SDS011;35899;50.352;19.390;2022-12-17T00:10:27;120.47;;;35.73;;
50010;SDS011;35899;50.352;19.390;2022-12-17T00:12:53;100.72;;;30.00;;
50010;SDS011;35899;50.352;19.390;2022-12-17T00:15:20;111.03;;;31.33;;
50010;SDS011;35899;50.352;19.390;2022-12-17T00:17:46;107.17;;;30.77;;
50010;SDS011;35899;50.352;19.390;2022-12-17T00:20:13;105.05;;;31.65;;
50010;SDS011;35899;50.352;19.390;2022-12-17T00:22:39;112.10;;;31.93;;
50010;SDS011;35899;50.352;19.390;2022-12-17T00:25:06;99.75;;;29.63;;
50010;SDS011;35899;50.352;19.390;2022-12-17T00:27:33;106.55;;;30.68;;
50010;SDS011;35899;50.352;19.390;2022-12-17T00:29:59;112.12;;;33.75;;
50010;SDS011;35899;50.352;19.390;2022-12-17T00:32:26;111.10;;;30.77;;
50010;SDS011;35899;50.352;19.390;2022-12-17T00:34:53;117.10;;;36.40;;
50010;SDS011;35899;50.352;19.390;2022-12-17T00:37:19;100.15;;;32.55;;
50010;SDS011;35899;50.352;19.390;2022-12-17T00:39:46;101.40;;;31.23;;
50010;SDS011;35899;50.352;19.390;2022-12-17T00:42:12;97.88;;;29.52;;
50010;SDS011;35899;50.352;19.390;2022-12-17T00:44:39;89.50;;;28.05;;
50010;SDS011;35899;50.352;19.390;2022-12-17T00:47:05;90.90;;;29.23;;
50010;SDS011;35899;50.352;19.390;2022-12-17T00:49:32;97.22;;;33.20;;
50010;SDS011;35899;50.352;19.390;2022-12-17T00:51:58;96.05;;;32.42;;
50010;SDS011;35899;50.352;19.390;2022-12-17T00:54:25;102.62;;;32.58;;
50010;SDS011;35899;50.352;19.390;2022-12-17T00:56:51;87.37;;;27.40;;
50010;SDS011;35899;50.352;19.390;2022-12-17T00:59:18;101.10;;;30.30;;
50010;SDS011;35899;50.352;19.390;2022-12-17T01:01:45;89.00;;;28.62;;
50010;SDS011;35899;50.352;19.390;2022-12-17T01:04:14;98.87;;;30.88;;
50010;SDS011;35899;50.352;19.390;2022-12-17T01:06:41;90.22;;;30.08;;
50010;SDS011;35899;50.352;19.390;2022-12-17T01:09:07;90.67;;;29.52;;
50010;SDS011;35899;50.352;19.390;2022-12-17T01:11:33;90.25;;;27.35;;
50010;SDS011;35899;50.352;19.390;2022-12-17T01:14:00;107.83;;;38.50;;
50010;SDS011;35899;50.352;19.390;2022-12-17T01:16:27;90.28;;;27.67;;
50010;SDS011;35899;50.352;19.390;2022-12-17T01:18:54;100.53;;;31.55;;
50010;SDS011;35899;50.352;19.390;2022-12-17T01:21:22;104.60;;;35.70;;
50010;SDS011;35899;50.352;19.390;2022-12-17T01:23:49;84.50;;;28.60;;
50010;SDS011;35899;50.352;19.390;2022-12-17T01:26:15;100.53;;;34.73;;
50010;SDS011;35899;50.352;19.390;2022-12-17T01:28:42;86.82;;;28.67;;
50010;SDS011;35899;50.352;19.390;2022-12-17T01:31:08;103.20;;;36.93;;
50010;SDS011;35899;50.352;19.390;2022-12-17T01:33:35;89.80;;;28.73;;
50010;SDS011;35899;50.352;19.390;2022-12-17T01:36:02;81.65;;;26.75;;
50010;SDS011;35899;50.352;19.390;2022-12-17T01:38:28;85.60;;;28.55;;
50010;SDS011;35899;50.352;19.390;2022-12-17T01:40:55;87.10;;;27.80;;
50010;SDS011;35899;50.352;19.390;2022-12-17T01:43:34;88.65;;;29.07;;
50010;SDS011;35899;50.352;19.390;2022-12-17T01:45:59;92.78;;;28.98;;
50010;SDS011;35899;50.352;19.390;2022-12-17T01:48:32;87.57;;;27.35;;
50010;SDS011;35899;50.352;19.390;2022-12-17T01:50:58;88.60;;;29.50;;
50010;SDS011;35899;50.352;19.390;2022-12-17T01:53:26;97.70;;;30.45;;
50010;SDS011;35899;50.352;19.390;2022-12-17T01:56:00;87.85;;;28.25;;
50010;SDS011;35899;50.352;19.390;2022-12-17T01:58:27;85.60;;;26.90;;
50010;SDS011;35899;50.352;19.390;2022-12-17T02:00:55;83.70;;;27.70;;
50010;SDS011;35899;50.352;19.390;2022-12-17T02:03:21;77.12;;;25.37;;
50010;SDS011;35899;50.352;19.390;2022-12-17T02:08:44;78.75;;;25.27;;
50010;SDS011;35899;50.352;19.390;2022-12-17T02:12:06;68.30;;;23.57;;
50010;SDS011;35899;50.352;19.390;2022-12-17T02:16:56;77.12;;;24.47;;
50010;SDS011;35899;50.352;19.390;2022-12-17T02:22:35;77.78;;;25.57;;
50010;SDS011;35899;50.352;19.390;2022-12-17T02:27:50;76.00;;;23.98;;
50010;SDS011;35899;50.352;19.390;2022-12-17T02:30:17;71.42;;;22.32;;
50010;SDS011;35899;50.352;19.390;2022-12-17T02:32:44;74.53;;;23.77;;
50010;SDS011;35899;50.352;19.390;2022-12-17T02:35:15;79.55;;;26.17;;
50010;SDS011;35899;50.352;19.390;2022-12-17T02:37:49;75.67;;;24.92;;
50010;SDS011;35899;50.352;19.390;2022-12-17T02:40:13;76.85;;;25.10;;
50010;SDS011;35899;50.352;19.390;2022-12-17T02:42:43;71.02;;;24.40;;
50010;SDS011;35899;50.352;19.390;2022-12-17T02:45:12;74.35;;;23.77;;
50010;SDS011;35899;50.352;19.390;2022-12-17T02:47:41;67.65;;;23.27;;
50010;SDS011;35899;50.352;19.390;2022-12-17T02:50:10;73.33;;;23.70;;
50010;SDS011;35899;50.352;19.390;2022-12-17T02:52:38;79.17;;;23.18;;
50010;SDS011;35899;50.352;19.390;2022-12-17T02:55:10;81.32;;;26.50;;
50010;SDS011;35899;50.352;19.390;2022-12-17T02:57:37;73.30;;;24.75;;
50010;SDS011;35899;50.352;19.390;2022-12-17T03:00:03;70.00;;;22.60;;
50010;SDS011;35899;50.352;19.390;2022-12-17T03:02:31;80.40;;;25.57;;
50010;SDS011;35899;50.352;19.390;2022-12-17T03:04:58;78.97;;;26.97;;
50010;SDS011;35899;50.352;19.390;2022-12-17T03:07:24;83.65;;;26.68;;
50010;SDS011;35899;50.352;19.390;2022-12-17T03:09:51;78.62;;;24.12;;
50010;SDS011;35899;50.352;19.390;2022-12-17T03:12:17;83.62;;;25.55;;
50010;SDS011;35899;50.352;19.390;2022-12-17T03:14:44;79.75;;;25.48;;
50010;SDS011;35899;50.352;19.390;2022-12-17T03:17:10;73.25;;;23.80;;
50010;SDS011;35899;50.352;19.390;2022-12-17T03:19:36;78.40;;;25.05;;
50010;SDS011;35899;50.352;19.390;2022-12-17T03:22:03;80.57;;;25.65;;
50010;SDS011;35899;50.352;19.390;2022-12-17T03:24:29;78.62;;;25.75;;
50010;SDS011;35899;50.352;19.390;2022-12-17T03:26:56;66.10;;;22.85;;
50010;SDS011;35899;50.352;19.390;2022-12-17T03:29:22;77.75;;;25.52;;
50010;SDS011;35899;50.352;19.390;2022-12-17T03:31:48;77.32;;;25.02;;
50010;SDS011;35899;50.352;19.390;2022-12-17T03:34:14;77.85;;;26.55;;
50010;SDS011;35899;50.352;19.390;2022-12-17T03:36:41;85.32;;;25.08;;
50010;SDS011;35899;50.352;19.390;2022-12-17T03:39:08;79.15;;;24.95;;
50010;SDS011;35899;50.352;19.390;2022-12-17T03:41:34;75.45;;;24.15;;
50010;SDS011;35899;50.352;19.390;2022-12-17T03:44:00;80.67;;;24.65;;
50010;SDS011;35899;50.352;19.390;2022-12-17T03:46:27;81.17;;;26.23;;
50010;SDS011;35899;50.352;19.390;2022-12-17T03:48:53;75.52;;;25.52;;
50010;SDS011;35899;50.352;19.390;2022-12-17T03:51:19;84.35;;;26.12;;
50010;SDS011;35899;50.352;19.390;2022-12-17T03:53:46;77.20;;;25.23;;
50010;SDS011;35899;50.352;19.390;2022-12-17T03:56:13;73.40;;;22.93;;
50010;SDS011;35899;50.352;19.390;2022-12-17T03:58:39;80.38;;;25.30;;
50010;SDS011;35899;50.352;19.390;2022-12-17T04:01:05;69.90;;;24.30;;
50010;SDS011;35899;50.352;19.390;2022-12-17T04:03:32;75.30;;;24.92;;
50010;SDS011;35899;50.352;19.390;2022-12-17T04:05:58;73.92;;;25.10;;
50010;SDS011;35899;50.352;19.390;2022-12-17T04:08:24;83.52;;;27.17;;
50010;SDS011;35899;50.352;19.390;2022-12-17T04:10:51;87.22;;;27.95;;
50010;SDS011;35899;50.352;19.390;2022-12-17T04:13:17;80.87;;;26.05;;
50010;SDS011;35899;50.352;19.390;2022-12-17T04:15:43;72.12;;;23.77;;
50010;SDS011;35899;50.352;19.390;2022-12-17T04:18:10;77.60;;;24.67;;
50010;SDS011;35899;50.352;19.390;2022-12-17T04:20:36;74.72;;;24.45;;
50010;SDS011;35899;50.352;19.390;2022-12-17T04:23:02;82.17;;;25.95;;
50010;SDS011;35899;50.352;19.390;2022-12-17T04:25:29;89.10;;;29.77;;
50010;SDS011;35899;50.352;19.390;2022-12-17T04:27:55;78.57;;;24.00;;
50010;SDS011;35899;50.352;19.390;2022-12-17T04:30:21;77.87;;;26.33;;
50010;SDS011;35899;50.352;19.390;2022-12-17T04:32:48;85.12;;;27.17;;
50010;SDS011;35899;50.352;19.390;2022-12-17T04:35:14;84.13;;;27.42;;
50010;SDS011;35899;50.352;19.390;2022-12-17T04:37:40;90.85;;;27.27;;
50010;SDS011;35899;50.352;19.390;2022-12-17T04:40:07;82.75;;;28.00;;
50010;SDS011;35899;50.352;19.390;2022-12-17T04:42:35;82.90;;;26.35;;
50010;SDS011;35899;50.352;19.390;2022-12-17T04:45:02;88.03;;;28.02;;
50010;SDS011;35899;50.352;19.390;2022-12-17T04:47:29;79.32;;;25.37;;
50010;SDS011;35899;50.352;19.390;2022-12-17T04:49:55;84.37;;;24.95;;
50010;SDS011;35899;50.352;19.390;2022-12-17T04:52:22;79.58;;;25.30;;
50010;SDS011;35899;50.352;19.390;2022-12-17T04:54:48;85.95;;;28.80;;
50010;SDS011;35899;50.352;19.390;2022-12-17T04:57:14;84.62;;;26.87;;
50010;SDS011;35899;50.352;19.390;2022-12-17T04:59:41;88.80;;;26.62;;
50010;SDS011;35899;50.352;19.390;2022-12-17T05:02:07;83.52;;;27.00;;
50010;SDS011;35899;50.352;19.390;2022-12-17T05:04:33;89.25;;;28.55;;
50010;SDS011;35899;50.352;19.390;2022-12-17T05:07:00;76.05;;;25.35;;
50010;SDS011;35899;50.352;19.390;2022-12-17T05:09:26;85.97;;;28.17;;
50010;SDS011;35899;50.352;19.390;2022-12-17T05:11:52;86.75;;;28.35;;
50010;SDS011;35899;50.352;19.390;2022-12-17T05:14:19;73.25;;;24.82;;
50010;SDS011;35899;50.352;19.390;2022-12-17T05:16:45;88.72;;;27.70;;
50010;SDS011;35899;50.352;19.390;2022-12-17T05:19:11;82.92;;;29.12;;
50010;SDS011;35899;50.352;19.390;2022-12-17T05:21:38;84.20;;;25.57;;
50010;SDS011;35899;50.352;19.390;2022-12-17T05:24:04;98.45;;;28.92;;
50010;SDS011;35899;50.352;19.390;2022-12-17T05:26:30;90.00;;;29.48;;
50010;SDS011;35899;50.352;19.390;2022-12-17T05:28:57;85.28;;;25.25;;
50010;SDS011;35899;50.352;19.390;2022-12-17T05:31:23;82.47;;;26.35;;
50010;SDS011;35899;50.352;19.390;2022-12-17T05:33:49;92.82;;;29.60;;
50010;SDS011;35899;50.352;19.390;2022-12-17T05:36:16;85.67;;;28.15;;
50010;SDS011;35899;50.352;19.390;2022-12-17T05:38:42;86.95;;;27.60;;
50010;SDS011;35899;50.352;19.390;2022-12-17T05:41:08;94.25;;;29.02;;
50010;SDS011;35899;50.352;19.390;2022-12-17T05:43:35;92.17;;;29.20;;
50010;SDS011;35899;50.352;19.390;2022-12-17T05:46:01;91.82;;;27.48;;
50010;SDS011;35899;50.352;19.390;2022-12-17T05:48:27;92.47;;;27.67;;
50010;SDS011;35899;50.352;19.390;2022-12-17T05:50:54;94.92;;;28.83;;
50010;SDS011;35899;50.352;19.390;2022-12-17T05:53:20;87.08;;;26.60;;
50010;SDS011;35899;50.352;19.390;2022-12-17T05:55:47;90.83;;;27.65;;
50010;SDS011;35899;50.352;19.390;2022-12-17T05:58:17;88.60;;;29.35;;
50010;SDS011;35899;50.352;19.390;2022-12-17T06:00:44;100.22;;;32.60;;
50010;SDS011;35899;50.352;19.390;2022-12-17T06:03:10;91.78;;;28.75;;
50010;SDS011;35899;50.352;19.390;2022-12-17T06:05:36;84.03;;;27.13;;
50010;SDS011;35899;50.352;19.390;2022-12-17T06:08:03;88.40;;;27.42;;
50010;SDS011;35899;50.352;19.390;2022-12-17T06:10:32;88.67;;;28.65;;
50010;SDS011;35899;50.352;19.390;2022-12-17T06:12:58;97.33;;;31.23;;
50010;SDS011;35899;50.352;19.390;2022-12-17T06:15:25;90.03;;;27.13;;
50010;SDS011;35899;50.352;19.390;2022-12-17T06:17:53;95.00;;;29.37;;
50010;SDS011;35899;50.352;19.390;2022-12-17T06:20:21;87.47;;;27.52;;
50010;SDS011;35899;50.352;19.390;2022-12-17T06:22:57;93.97;;;28.87;;
50010;SDS011;35899;50.352;19.390;2022-12-17T06:25:31;92.80;;;29.40;;
50010;SDS011;35899;50.352;19.390;2022-12-17T06:27:59;94.28;;;30.43;;
50010;SDS011;35899;50.352;19.390;2022-12-17T06:30:26;83.55;;;26.80;;
50010;SDS011;35899;50.352;19.390;2022-12-17T06:33:01;116.45;;;32.93;;
50010;SDS011;35899;50.352;19.390;2022-12-17T06:35:35;107.03;;;32.58;;
50010;SDS011;35899;50.352;19.390;2022-12-17T06:38:03;112.28;;;32.78;;
50010;SDS011;35899;50.352;19.390;2022-12-17T06:40:31;101.72;;;33.28;;
50010;SDS011;35899;50.352;19.390;2022-12-17T06:42:57;101.62;;;32.65;;
50010;SDS011;35899;50.352;19.390;2022-12-17T06:45:24;104.20;;;34.40;;
50010;SDS011;35899;50.352;19.390;2022-12-17T06:47:50;105.65;;;35.23;;
50010;SDS011;35899;50.352;19.390;2022-12-17T06:50:16;87.90;;;27.87;;
50010;SDS011;35899;50.352;19.390;2022-12-17T06:52:42;100.15;;;34.38;;
50010;SDS011;35899;50.352;19.390;2022-12-17T06:55:09;99.05;;;34.90;;
50010;SDS011;35899;50.352;19.390;2022-12-17T06:57:35;96.35;;;33.28;;
50010;SDS011;35899;50.352;19.390;2022-12-17T07:00:03;97.57;;;31.52;;
50010;SDS011;35899;50.352;19.390;2022-12-17T07:02:31;92.62;;;31.85;;
50010;SDS011;35899;50.352;19.390;2022-12-17T07:04:57;106.45;;;36.03;;
50010;SDS011;35899;50.352;19.390;2022-12-17T07:07:23;103.17;;;33.83;;
50010;SDS011;35899;50.352;19.390;2022-12-17T07:09:50;115.50;;;38.58;;
50010;SDS011;35899;50.352;19.390;2022-12-17T07:12:16;100.05;;;33.60;;
50010;SDS011;35899;50.352;19.390;2022-12-17T07:14:42;99.80;;;35.35;;
50010;SDS011;35899;50.352;19.390;2022-12-17T07:17:09;100.50;;;33.40;;
50010;SDS011;35899;50.352;19.390;2022-12-17T07:19:35;108.60;;;38.20;;
50010;SDS011;35899;50.352;19.390;2022-12-17T07:22:02;106.22;;;36.42;;
50010;SDS011;35899;50.352;19.390;2022-12-17T07:24:28;105.85;;;37.78;;
50010;SDS011;35899;50.352;19.390;2022-12-17T07:26:54;106.00;;;34.55;;
50010;SDS011;35899;50.352;19.390;2022-12-17T07:29:21;102.45;;;34.27;;
50010;SDS011;35899;50.352;19.390;2022-12-17T07:31:48;106.67;;;37.63;;
50010;SDS011;35899;50.352;19.390;2022-12-17T07:34:14;102.75;;;36.17;;
50010;SDS011;35899;50.352;19.390;2022-12-17T07:36:40;114.08;;;39.18;;
50010;SDS011;35899;50.352;19.390;2022-12-17T07:39:07;111.40;;;38.45;;
50010;SDS011;35899;50.352;19.390;2022-12-17T07:41:33;107.20;;;33.88;;
50010;SDS011;35899;50.352;19.390;2022-12-17T07:44:00;110.25;;;36.13;;
50010;SDS011;35899;50.352;19.390;2022-12-17T07:46:27;102.50;;;35.40;;
50010;SDS011;35899;50.352;19.390;2022-12-17T07:48:54;109.92;;;37.40;;
50010;SDS011;35899;50.352;19.390;2022-12-17T07:51:20;101.67;;;34.67;;
50010;SDS011;35899;50.352;19.390;2022-12-17T07:53:46;102.55;;;34.83;;
50010;SDS011;35899;50.352;19.390;2022-12-17T07:56:13;99.30;;;33.18;;
50010;SDS011;35899;50.352;19.390;2022-12-17T07:58:39;100.80;;;35.63;;
50010;SDS011;35899;50.352;19.390;2022-12-17T08:01:05;90.47;;;32.10;;
50010;SDS011;35899;50.352;19.390;2022-12-17T08:03:32;107.27;;;35.55;;
50010;SDS011;35899;50.352;19.390;2022-12-17T08:05:58;99.13;;;34.20;;
50010;SDS011;35899;50.352;19.390;2022-12-17T08:08:24;109.17;;;35.28;;
50010;SDS011;35899;50.352;19.390;2022-12-17T08:10:51;108.12;;;35.50;;
50010;SDS011;35899;50.352;19.390;2022-12-17T08:13:17;112.10;;;35.78;;
50010;SDS011;35899;50.352;19.390;2022-12-17T08:15:44;108.85;;;35.68;;
50010;SDS011;35899;50.352;19.390;2022-12-17T08:18:10;107.47;;;36.05;;
50010;SDS011;35899;50.352;19.390;2022-12-17T08:20:37;105.47;;;36.05;;
50010;SDS011;35899;50.352;19.390;2022-12-17T08:23:03;115.55;;;38.35;;
50010;SDS011;35899;50.352;19.390;2022-12-17T08:25:30;115.35;;;37.75;;
50010;SDS011;35899;50.352;19.390;2022-12-17T08:27:57;118.13;;;37.95;;
50010;SDS011;35899;50.352;19.390;2022-12-17T08:30:24;99.28;;;32.88;;
50010;SDS011;35899;50.352;19.390;2022-12-17T08:32:51;110.17;;;37.70;;
50010;SDS011;35899;50.352;19.390;2022-12-17T08:35:17;118.28;;;40.10;;
50010;SDS011;35899;50.352;19.390;2022-12-17T08:37:44;111.65;;;38.88;;
50010;SDS011;35899;50.352;19.390;2022-12-17T08:40:10;117.05;;;40.15;;
50010;SDS011;35899;50.352;19.390;2022-12-17T08:42:36;108.85;;;35.95;;
50010;SDS011;35899;50.352;19.390;2022-12-17T08:45:03;98.58;;;32.23;;
50010;SDS011;35899;50.352;19.390;2022-12-17T08:47:30;106.70;;;35.85;;
50010;SDS011;35899;50.352;19.390;2022-12-17T08:49:57;111.03;;;37.67;;
50010;SDS011;35899;50.352;19.390;2022-12-17T08:52:23;102.47;;;36.83;;
50010;SDS011;35899;50.352;19.390;2022-12-17T08:54:49;110.90;;;38.08;;
50010;SDS011;35899;50.352;19.390;2022-12-17T08:57:16;111.00;;;36.23;;
50010;SDS011;35899;50.352;19.390;2022-12-17T08:59:42;106.50;;;37.88;;
50010;SDS011;35899;50.352;19.390;2022-12-17T09:02:09;109.83;;;36.08;;
50010;SDS011;35899;50.352;19.390;2022-12-17T09:04:35;99.70;;;33.92;;
50010;SDS011;35899;50.352;19.390;2022-12-17T09:07:02;105.22;;;37.80;;
50010;SDS011;35899;50.352;19.390;2022-12-17T09:09:28;106.10;;;37.53;;
50010;SDS011;35899;50.352;19.390;2022-12-17T09:11:54;101.02;;;34.35;;
50010;SDS011;35899;50.352;19.390;2022-12-17T09:14:20;105.03;;;37.28;;
50010;SDS011;35899;50.352;19.390;2022-12-17T09:16:47;95.17;;;32.35;;
50010;SDS011;35899;50.352;19.390;2022-12-17T09:19:13;104.80;;;37.35;;
50010;SDS011;35899;50.352;19.390;2022-12-17T09:21:40;107.50;;;38.65;;
50010;SDS011;35899;50.352;19.390;2022-12-17T09:24:06;98.95;;;34.00;;
50010;SDS011;35899;50.352;19.390;2022-12-17T09:26:34;106.03;;;35.28;;
50010;SDS011;35899;50.352;19.390;2022-12-17T09:29:00;97.25;;;35.80;;
50010;SDS011;35899;50.352;19.390;2022-12-17T09:31:27;106.00;;;38.08;;
50010;SDS011;35899;50.352;19.390;2022-12-17T09:33:55;106.92;;;39.67;;
50010;SDS011;35899;50.352;19.390;2022-12-17T09:36:21;101.00;;;36.60;;
50010;SDS011;35899;50.352;19.390;2022-12-17T09:38:48;104.17;;;38.28;;
50010;SDS011;35899;50.352;19.390;2022-12-17T09:41:17;112.60;;;38.23;;
50010;SDS011;35899;50.352;19.390;2022-12-17T09:44:00;101.55;;;36.55;;
50010;SDS011;35899;50.352;19.390;2022-12-17T09:49:15;102.20;;;36.33;;
50010;SDS011;35899;50.352;19.390;2022-12-17T09:51:52;103.60;;;37.98;;
50010;SDS011;35899;50.352;19.390;2022-12-17T09:57:06;98.45;;;36.55;;
50010;SDS011;35899;50.352;19.390;2022-12-17T09:59:38;97.12;;;35.95;;
50010;SDS011;35899;50.352;19.390;2022-12-17T10:02:14;98.15;;;36.05;;
50010;SDS011;35899;50.352;19.390;2022-12-17T10:04:46;104.12;;;39.40;;
50010;SDS011;35899;50.352;19.390;2022-12-17T10:07:15;98.17;;;36.23;;
50010;SDS011;35899;50.352;19.390;2022-12-17T10:09:45;87.65;;;32.08;;
50010;SDS011;35899;50.352;19.390;2022-12-17T10:12:17;99.20;;;35.92;;
50010;SDS011;35899;50.352;19.390;2022-12-17T10:14:45;98.17;;;34.85;;
50010;SDS011;35899;50.352;19.390;2022-12-17T10:19:52;98.47;;;35.85;;
50010;SDS011;35899;50.352;19.390;2022-12-17T10:22:19;107.22;;;37.05;;
50010;SDS011;35899;50.352;19.390;2022-12-17T10:24:46;95.50;;;34.92;;
50010;SDS011;35899;50.352;19.390;2022-12-17T10:27:17;101.38;;;36.53;;
50010;SDS011;35899;50.352;19.390;2022-12-17T10:29:44;99.10;;;35.15;;
50010;SDS011;35899;50.352;19.390;2022-12-17T10:32:21;143.43;;;62.40;;
50010;SDS011;35899;50.352;19.390;2022-12-17T10:34:43;136.85;;;53.83;;
50010;SDS011;35899;50.352;19.390;2022-12-17T10:37:17;294.02;;;136.82;;
50010;SDS011;35899;50.352;19.390;2022-12-17T10:39:53;387.38;;;220.22;;
50010;SDS011;35899;50.352;19.390;2022-12-17T10:42:29;220.85;;;116.62;;
50010;SDS011;35899;50.352;19.390;2022-12-17T10:44:55;125.90;;;52.88;;
50010;SDS011;35899;50.352;19.390;2022-12-17T10:47:26;208.07;;;117.47;;
50010;SDS011;35899;50.352;19.390;2022-12-17T10:49:59;193.30;;;106.40;;
50010;SDS011;35899;50.352;19.390;2022-12-17T10:52:37;124.47;;;58.38;;
50010;SDS011;35899;50.352;19.390;2022-12-17T10:55:04;226.05;;;144.53;;
50010;SDS011;35899;50.352;19.390;2022-12-17T10:57:35;135.25;;;68.12;;
50010;SDS011;35899;50.352;19.390;2022-12-17T11:00:13;241.40;;;147.87;;
50010;SDS011;35899;50.352;19.390;2022-12-17T11:02:55;168.55;;;92.88;;
50010;SDS011;35899;50.352;19.390;2022-12-17T11:05:29;145.28;;;72.92;;
50010;SDS011;35899;50.352;19.390;2022-12-17T11:07:59;142.30;;;76.80;;
50010;SDS011;35899;50.352;19.390;2022-12-17T11:10:29;145.80;;;75.67;;
50010;SDS011;35899;50.352;19.390;2022-12-17T11:13:00;107.17;;;44.95;;
50010;SDS011;35899;50.352;19.390;2022-12-17T11:15:35;113.20;;;53.13;;
50010;SDS011;35899;50.352;19.390;2022-12-17T11:18:16;101.38;;;39.65;;
50010;SDS011;35899;50.352;19.390;2022-12-17T11:20:54;100.05;;;37.93;;
50010;SDS011;35899;50.352;19.390;2022-12-17T11:23:27;99.75;;;37.15;;
50010;SDS011;35899;50.352;19.390;2022-12-17T11:28:31;94.00;;;35.98;;
50010;SDS011;35899;50.352;19.390;2022-12-17T11:33:57;95.90;;;35.78;;
50010;SDS011;35899;50.352;19.390;2022-12-17T11:36:49;104.30;;;38.50;;
50010;SDS011;35899;50.352;19.390;2022-12-17T11:39:33;85.75;;;32.20;;
50010;SDS011;35899;50.352;19.390;2022-12-17T11:42:16;85.55;;;32.70;;
50010;SDS011;35899;50.352;19.390;2022-12-17T11:45:33;95.17;;;33.50;;
50010;SDS011;35899;50.352;19.390;2022-12-17T11:50:10;94.15;;;34.03;;
50010;SDS011;35899;50.352;19.390;2022-12-17T11:53:09;99.67;;;34.95;;
50010;SDS011;35899;50.352;19.390;2022-12-17T11:55:56;99.35;;;35.33;;
50010;SDS011;35899;50.352;19.390;2022-12-17T12:01:25;96.63;;;33.95;;
50010;SDS011;35899;50.352;19.390;2022-12-17T12:15:16;88.42;;;31.65;;
50010;SDS011;35899;50.352;19.390;2022-12-17T12:18:01;95.10;;;34.65;;
50010;SDS011;35899;50.352;19.390;2022-12-17T12:24:00;92.05;;;31.20;;
50010;SDS011;35899;50.352;19.390;2022-12-17T12:26:49;98.97;;;32.93;;
50010;SDS011;35899;50.352;19.390;2022-12-17T12:29:26;91.95;;;31.48;;
50010;SDS011;35899;50.352;19.390;2022-12-17T12:32:04;106.43;;;33.90;;
50010;SDS011;35899;50.352;19.390;2022-12-17T12:34:45;98.90;;;34.48;;
50010;SDS011;35899;50.352;19.390;2022-12-17T12:37:13;104.43;;;34.60;;
50010;SDS011;35899;50.352;19.390;2022-12-17T12:39:45;99.50;;;34.45;;
50010;SDS011;35899;50.352;19.390;2022-12-17T12:42:37;83.05;;;28.20;;
50010;SDS011;35899;50.352;19.390;2022-12-17T12:46:03;103.78;;;34.27;;
50010;SDS011;35899;50.352;19.390;2022-12-17T12:48:05;102.07;;;34.38;;
50010;SDS011;35899;50.352;19.390;2022-12-17T12:50:56;100.42;;;35.25;;
50010;SDS011;35899;50.352;19.390;2022-12-17T12:53:31;105.67;;;35.55;;
50010;SDS011;35899;50.352;19.390;2022-12-17T12:55:58;97.95;;;36.17;;
50010;SDS011;35899;50.352;19.390;2022-12-17T12:58:28;111.95;;;43.63;;
50010;SDS011;35899;50.352;19.390;2022-12-17T13:03:28;118.50;;;37.25;;
50010;SDS011;35899;50.352;19.390;2022-12-17T13:06:36;231.72;;;130.93;;
50010;SDS011;35899;50.352;19.390;2022-12-17T13:17:27;133.32;;;49.03;;
50010;SDS011;35899;50.352;19.390;2022-12-17T13:20:19;127.92;;;46.30;;
50010;SDS011;35899;50.352;19.390;2022-12-17T13:25:37;168.15;;;53.38;;
50010;SDS011;35899;50.352;19.390;2022-12-17T13:28:04;122.00;;;42.83;;
50010;SDS011;35899;50.352;19.390;2022-12-17T13:31:03;119.75;;;39.25;;
50010;SDS011;35899;50.352;19.390;2022-12-17T13:33:38;141.90;;;46.75;;
50010;SDS011;35899;50.352;19.390;2022-12-17T13:39:14;127.95;;;49.10;;
50010;SDS011;35899;50.352;19.390;2022-12-17T13:41:51;122.37;;;42.78;;
50010;SDS011;35899;50.352;19.390;2022-12-17T13:44:24;126.92;;;43.28;;
50010;SDS011;35899;50.352;19.390;2022-12-17T13:47:16;134.30;;;44.90;;
50010;SDS011;35899;50.352;19.390;2022-12-17T13:49:49;113.15;;;37.42;;
50010;SDS011;35899;50.352;19.390;2022-12-17T13:52:19;134.07;;;42.78;;
50010;SDS011;35899;50.352;19.390;2022-12-17T13:54:48;123.78;;;41.40;;
50010;SDS011;35899;50.352;19.390;2022-12-17T13:57:22;116.88;;;38.58;;
50010;SDS011;35899;50.352;19.390;2022-12-17T13:59:50;112.03;;;34.10;;
50010;SDS011;35899;50.352;19.390;2022-12-17T14:02:25;153.97;;;58.05;;
50010;SDS011;35899;50.352;19.390;2022-12-17T14:05:03;137.32;;;49.13;;
50010;SDS011;35899;50.352;19.390;2022-12-17T14:07:33;122.47;;;39.75;;
50010;SDS011;35899;50.352;19.390;2022-12-17T14:10:03;115.05;;;38.10;;
50010;SDS011;35899;50.352;19.390;2022-12-17T14:12:32;118.42;;;39.67;;
50010;SDS011;35899;50.352;19.390;2022-12-17T14:15:00;110.55;;;35.90;;
50010;SDS011;35899;50.352;19.390;2022-12-17T14:17:36;110.92;;;37.35;;
50010;SDS011;35899;50.352;19.390;2022-12-17T14:20:09;113.95;;;38.45;;
50010;SDS011;35899;50.352;19.390;2022-12-17T14:22:49;109.48;;;37.03;;
50010;SDS011;35899;50.352;19.390;2022-12-17T14:25:22;121.75;;;41.40;;
50010;SDS011;35899;50.352;19.390;2022-12-17T14:30:28;110.15;;;34.83;;
50010;SDS011;35899;50.352;19.390;2022-12-17T14:33:04;119.57;;;37.20;;
50010;SDS011;35899;50.352;19.390;2022-12-17T14:36:00;125.30;;;37.88;;
50010;SDS011;35899;50.352;19.390;2022-12-17T14:41:21;119.85;;;36.30;;
50010;SDS011;35899;50.352;19.390;2022-12-17T14:43:53;114.25;;;33.25;;
50010;SDS011;35899;50.352;19.390;2022-12-17T14:46:22;116.77;;;34.60;;
50010;SDS011;35899;50.352;19.390;2022-12-17T14:54:26;121.55;;;34.73;;
50010;SDS011;35899;50.352;19.390;2022-12-17T14:56:52;123.85;;;36.40;;
50010;SDS011;35899;50.352;19.390;2022-12-17T15:02:04;112.52;;;34.38;;
50010;SDS011;35899;50.352;19.390;2022-12-17T15:07:14;129.50;;;37.55;;
50010;SDS011;35899;50.352;19.390;2022-12-17T15:09:50;113.20;;;30.88;;
50010;SDS011;35899;50.352;19.390;2022-12-17T15:12:19;122.70;;;34.50;;
50010;SDS011;35899;50.352;19.390;2022-12-17T15:14:47;131.15;;;36.77;;
50010;SDS011;35899;50.352;19.390;2022-12-17T15:17:14;116.77;;;32.93;;
50010;SDS011;35899;50.352;19.390;2022-12-17T15:19:41;138.37;;;37.38;;
50010;SDS011;35899;50.352;19.390;2022-12-17T15:22:16;132.47;;;37.00;;
50010;SDS011;35899;50.352;19.390;2022-12-17T15:24:40;120.92;;;34.40;;
50010;SDS011;35899;50.352;19.390;2022-12-17T15:27:10;142.45;;;40.70;;
50010;SDS011;35899;50.352;19.390;2022-12-17T15:29:44;148.50;;;42.33;;
50010;SDS011;35899;50.352;19.390;2022-12-17T15:32:18;111.20;;;33.25;;
50010;SDS011;35899;50.352;19.390;2022-12-17T15:34:47;123.70;;;35.70;;